sensor_id;sensor_type;location;lat;lon;timestamp;P1;durP1;ratioP1;P2;durP2;ratioP2
11524;SDS011;5819;49.648;8.330;2023-03-14T00:01:30;3.58;;;0.98;;
11524;SDS011;5819;49.648;8.330;2023-03-14T00:03:58;2.85;;;0.95;;
11524;SDS011;5819;49.648;8.330;2023-03-14T00:06:28;2.00;;;1.10;;
11524;SDS011;5819;49.648;8.330;2023-03-14T00:08:57;2.33;;;1.20;;
11524;SDS011;5819;49.648;8.330;2023-03-14T00:11:27;3.30;;;1.38;;
11524;SDS011;5819;49.648;8.330;2023-03-14T00:13:55;2.22;;;0.90;;
11524;SDS011;5819;49.648;8.330;2023-03-14T00:16:24;2.80;;;1.10;;
11524;SDS011;5819;49.648;8.330;2023-03-14T00:18:52;2.17;;;0.80;;
11524;SDS011;5819;49.648;8.330;2023-03-14T00:21:20;1.95;;;1.02;;
11524;SDS011;5819;49.648;8.330;2023-03-14T00:23:49;4.10;;;1.33;;
11524;SDS011;5819;49.648;8.330;2023-03-14T00:26:18;3.88;;;1.27;;
11524;SDS011;5819;49.648;8.330;2023-03-14T00:28:51;3.40;;;1.00;;
11524;SDS011;5819;49.648;8.330;2023-03-14T00:31:21;3.22;;;0.88;;
11524;SDS011;5819;49.648;8.330;2023-03-14T00:33:51;2.47;;;1.08;;
11524;SDS011;5819;49.648;8.330;2023-03-14T00:36:20;3.85;;;1.15;;
11524;SDS011;5819;49.648;8.330;2023-03-14T00:38:50;2.72;;;1.15;;
11524;SDS011;5819;49.648;8.330;2023-03-14T00:41:22;3.65;;;1.02;;
11524;SDS011;5819;49.648;8.330;2023-03-14T00:43:50;3.70;;;1.15;;
11524;SDS011;5819;49.648;8.330;2023-03-14T00:46:19;3.65;;;1.00;;
11524;SDS011;5819;49.648;8.330;2023-03-14T00:48:47;2.58;;;1.00;;
11524;SDS011;5819;49.648;8.330;2023-03-14T00:51:15;3.53;;;1.10;;
11524;SDS011;5819;49.648;8.330;2023-03-14T00:53:43;5.05;;;1.13;;
11524;SDS011;5819;49.648;8.330;2023-03-14T00:56:13;5.55;;;1.20;;
11524;SDS011;5819;49.648;8.330;2023-03-14T00:58:41;6.70;;;1.20;;
11524;SDS011;5819;49.648;8.330;2023-03-14T01:01:12;3.85;;;1.30;;
11524;SDS011;5819;49.648;8.330;2023-03-14T01:03:41;4.00;;;1.10;;
11524;SDS011;5819;49.648;8.330;2023-03-14T01:06:10;5.28;;;1.10;;
11524;SDS011;5819;49.648;8.330;2023-03-14T01:08:41;4.63;;;1.23;;
11524;SDS011;5819;49.648;8.330;2023-03-14T01:11:10;4.32;;;1.23;;
11524;SDS011;5819;49.648;8.330;2023-03-14T01:13:41;6.07;;;1.48;;
11524;SDS011;5819;49.648;8.330;2023-03-14T01:16:10;3.88;;;1.13;;
11524;SDS011;5819;49.648;8.330;2023-03-14T01:18:40;5.07;;;1.27;;
11524;SDS011;5819;49.648;8.330;2023-03-14T01:21:12;2.47;;;0.95;;
11524;SDS011;5819;49.648;8.330;2023-03-14T01:23:42;3.83;;;1.42;;
11524;SDS011;5819;49.648;8.330;2023-03-14T01:26:13;3.65;;;1.10;;
11524;SDS011;5819;49.648;8.330;2023-03-14T01:28:45;2.97;;;0.93;;
11524;SDS011;5819;49.648;8.330;2023-03-14T01:31:14;2.20;;;1.02;;
11524;SDS011;5819;49.648;8.330;2023-03-14T01:33:43;3.88;;;1.30;;
11524;SDS011;5819;49.648;8.330;2023-03-14T01:36:11;5.97;;;1.27;;
11524;SDS011;5819;49.648;8.330;2023-03-14T01:38:41;3.80;;;1.25;;
11524;SDS011;5819;49.648;8.330;2023-03-14T01:41:14;4.43;;;1.75;;
11524;SDS011;5819;49.648;8.330;2023-03-14T01:43:43;2.58;;;1.08;;
11524;SDS011;5819;49.648;8.330;2023-03-14T01:46:25;5.07;;;1.00;;
11524;SDS011;5819;49.648;8.330;2023-03-14T01:49:11;8.30;;;1.63;;
11524;SDS011;5819;49.648;8.330;2023-03-14T01:51:51;2.97;;;0.95;;
11524;SDS011;5819;49.648;8.330;2023-03-14T01:54:22;3.55;;;1.20;;
11524;SDS011;5819;49.648;8.330;2023-03-14T01:56:56;3.05;;;1.20;;
11524;SDS011;5819;49.648;8.330;2023-03-14T01:59:30;3.45;;;1.58;;
11524;SDS011;5819;49.648;8.330;2023-03-14T02:02:00;5.50;;;1.58;;
11524;SDS011;5819;49.648;8.330;2023-03-14T02:04:32;4.32;;;1.10;;
11524;SDS011;5819;49.648;8.330;2023-03-14T02:07:05;5.32;;;1.55;;
11524;SDS011;5819;49.648;8.330;2023-03-14T02:09:40;3.67;;;0.85;;
11524;SDS011;5819;49.648;8.330;2023-03-14T02:12:16;2.00;;;1.00;;
11524;SDS011;5819;49.648;8.330;2023-03-14T02:14:49;3.63;;;1.20;;
11524;SDS011;5819;49.648;8.330;2023-03-14T02:17:22;5.60;;;1.83;;
11524;SDS011;5819;49.648;8.330;2023-03-14T02:20:06;3.38;;;1.02;;
11524;SDS011;5819;49.648;8.330;2023-03-14T02:22:44;4.10;;;1.30;;
11524;SDS011;5819;49.648;8.330;2023-03-14T02:25:14;4.70;;;1.38;;
11524;SDS011;5819;49.648;8.330;2023-03-14T02:27:51;4.57;;;1.15;;
11524;SDS011;5819;49.648;8.330;2023-03-14T02:30:19;2.58;;;1.00;;
11524;SDS011;5819;49.648;8.330;2023-03-14T02:32:49;3.63;;;1.00;;
11524;SDS011;5819;49.648;8.330;2023-03-14T02:35:21;2.60;;;1.15;;
11524;SDS011;5819;49.648;8.330;2023-03-14T02:37:51;3.10;;;0.98;;
11524;SDS011;5819;49.648;8.330;2023-03-14T02:40:26;3.10;;;1.20;;
11524;SDS011;5819;49.648;8.330;2023-03-14T02:42:55;4.63;;;1.17;;
11524;SDS011;5819;49.648;8.330;2023-03-14T02:45:34;4.32;;;1.00;;
11524;SDS011;5819;49.648;8.330;2023-03-14T02:48:07;2.58;;;0.90;;
11524;SDS011;5819;49.648;8.330;2023-03-14T02:50:41;5.18;;;1.20;;
11524;SDS011;5819;49.648;8.330;2023-03-14T02:53:11;5.40;;;1.10;;
11524;SDS011;5819;49.648;8.330;2023-03-14T02:55:44;4.55;;;1.48;;
11524;SDS011;5819;49.648;8.330;2023-03-14T02:58:16;2.88;;;1.02;;
11524;SDS011;5819;49.648;8.330;2023-03-14T03:00:46;5.30;;;2.00;;
11524;SDS011;5819;49.648;8.330;2023-03-14T03:03:16;5.93;;;1.50;;
11524;SDS011;5819;49.648;8.330;2023-03-14T03:05:47;6.80;;;1.25;;
11524;SDS011;5819;49.648;8.330;2023-03-14T03:08:17;3.67;;;0.88;;
11524;SDS011;5819;49.648;8.330;2023-03-14T03:10:48;6.35;;;1.00;;
11524;SDS011;5819;49.648;8.330;2023-03-14T03:13:18;8.80;;;1.63;;
11524;SDS011;5819;49.648;8.330;2023-03-14T03:15:51;4.85;;;1.45;;
11524;SDS011;5819;49.648;8.330;2023-03-14T03:18:20;3.78;;;1.13;;
11524;SDS011;5819;49.648;8.330;2023-03-14T03:20:48;5.97;;;1.20;;
11524;SDS011;5819;49.648;8.330;2023-03-14T03:23:16;4.57;;;1.20;;
11524;SDS011;5819;49.648;8.330;2023-03-14T03:25:47;5.35;;;1.10;;
11524;SDS011;5819;49.648;8.330;2023-03-14T03:28:16;7.57;;;1.50;;
11524;SDS011;5819;49.648;8.330;2023-03-14T03:30:45;4.85;;;1.23;;
11524;SDS011;5819;49.648;8.330;2023-03-14T03:33:13;4.97;;;1.10;;
11524;SDS011;5819;49.648;8.330;2023-03-14T03:35:44;3.35;;;1.50;;
11524;SDS011;5819;49.648;8.330;2023-03-14T03:38:16;3.10;;;1.08;;
11524;SDS011;5819;49.648;8.330;2023-03-14T03:40:49;5.10;;;1.30;;
11524;SDS011;5819;49.648;8.330;2023-03-14T03:43:16;3.85;;;1.27;;
11524;SDS011;5819;49.648;8.330;2023-03-14T03:45:48;5.93;;;1.33;;
11524;SDS011;5819;49.648;8.330;2023-03-14T03:48:17;2.70;;;0.80;;
11524;SDS011;5819;49.648;8.330;2023-03-14T03:50:45;3.22;;;1.10;;
11524;SDS011;5819;49.648;8.330;2023-03-14T03:53:16;4.22;;;1.08;;
11524;SDS011;5819;49.648;8.330;2023-03-14T03:56:00;7.07;;;0.90;;
11524;SDS011;5819;49.648;8.330;2023-03-14T03:58:29;5.10;;;1.10;;
11524;SDS011;5819;49.648;8.330;2023-03-14T04:00:59;2.22;;;0.70;;
11524;SDS011;5819;49.648;8.330;2023-03-14T04:03:27;2.53;;;0.73;;
11524;SDS011;5819;49.648;8.330;2023-03-14T04:05:58;3.50;;;1.02;;
11524;SDS011;5819;49.648;8.330;2023-03-14T04:08:28;3.30;;;0.80;;
11524;SDS011;5819;49.648;8.330;2023-03-14T04:10:57;3.42;;;0.77;;
11524;SDS011;5819;49.648;8.330;2023-03-14T04:13:50;3.90;;;0.90;;
11524;SDS011;5819;49.648;8.330;2023-03-14T04:16:20;2.40;;;0.93;;
11524;SDS011;5819;49.648;8.330;2023-03-14T04:18:53;4.45;;;0.80;;
11524;SDS011;5819;49.648;8.330;2023-03-14T04:21:22;5.45;;;0.98;;
11524;SDS011;5819;49.648;8.330;2023-03-14T04:23:54;4.65;;;0.93;;
11524;SDS011;5819;49.648;8.330;2023-03-14T04:26:23;3.35;;;0.90;;
11524;SDS011;5819;49.648;8.330;2023-03-14T04:28:51;3.13;;;0.82;;
11524;SDS011;5819;49.648;8.330;2023-03-14T04:31:22;4.43;;;0.98;;
11524;SDS011;5819;49.648;8.330;2023-03-14T04:33:51;4.75;;;0.90;;
11524;SDS011;5819;49.648;8.330;2023-03-14T04:36:26;4.03;;;0.98;;
11524;SDS011;5819;49.648;8.330;2023-03-14T04:38:56;4.90;;;0.95;;
11524;SDS011;5819;49.648;8.330;2023-03-14T04:41:25;3.67;;;0.80;;
11524;SDS011;5819;49.648;8.330;2023-03-14T04:43:53;1.80;;;0.70;;
11524;SDS011;5819;49.648;8.330;2023-03-14T04:46:22;4.68;;;0.93;;
11524;SDS011;5819;49.648;8.330;2023-03-14T04:48:50;4.72;;;1.27;;
11524;SDS011;5819;49.648;8.330;2023-03-14T04:51:18;4.50;;;0.88;;
11524;SDS011;5819;49.648;8.330;2023-03-14T04:53:49;6.93;;;1.35;;
11524;SDS011;5819;49.648;8.330;2023-03-14T04:56:17;3.63;;;0.80;;
11524;SDS011;5819;49.648;8.330;2023-03-14T04:58:44;5.32;;;1.02;;
11524;SDS011;5819;49.648;8.330;2023-03-14T05:01:15;3.63;;;0.70;;
11524;SDS011;5819;49.648;8.330;2023-03-14T05:04:05;3.65;;;0.88;;
11524;SDS011;5819;49.648;8.330;2023-03-14T05:06:49;4.00;;;1.30;;
11524;SDS011;5819;49.648;8.330;2023-03-14T05:09:34;4.40;;;0.95;;
11524;SDS011;5819;49.648;8.330;2023-03-14T05:12:22;1.38;;;0.50;;
11524;SDS011;5819;49.648;8.330;2023-03-14T05:15:09;3.13;;;0.73;;
11524;SDS011;5819;49.648;8.330;2023-03-14T05:17:59;1.67;;;0.50;;
11524;SDS011;5819;49.648;8.330;2023-03-14T05:20:52;8.90;;;4.10;;
11524;SDS011;5819;49.648;8.330;2023-03-14T05:23:33;3.33;;;1.55;;
11524;SDS011;5819;49.648;8.330;2023-03-14T05:26:09;2.53;;;0.90;;
11524;SDS011;5819;49.648;8.330;2023-03-14T05:29:06;3.90;;;1.00;;
11524;SDS011;5819;49.648;8.330;2023-03-14T05:31:55;4.85;;;0.77;;
11524;SDS011;5819;49.648;8.330;2023-03-14T05:34:41;3.38;;;0.80;;
11524;SDS011;5819;49.648;8.330;2023-03-14T05:37:24;2.42;;;0.80;;
11524;SDS011;5819;49.648;8.330;2023-03-14T05:40:04;4.50;;;0.82;;
11524;SDS011;5819;49.648;8.330;2023-03-14T05:42:46;2.95;;;0.70;;
11524;SDS011;5819;49.648;8.330;2023-03-14T05:45:30;2.67;;;0.70;;
11524;SDS011;5819;49.648;8.330;2023-03-14T05:48:24;4.28;;;0.90;;
11524;SDS011;5819;49.648;8.330;2023-03-14T05:51:18;3.50;;;0.98;;
11524;SDS011;5819;49.648;8.330;2023-03-14T05:54:10;4.22;;;1.02;;
11524;SDS011;5819;49.648;8.330;2023-03-14T05:56:53;4.68;;;0.98;;
11524;SDS011;5819;49.648;8.330;2023-03-14T05:59:37;3.22;;;0.63;;
11524;SDS011;5819;49.648;8.330;2023-03-14T06:02:13;3.85;;;0.93;;
11524;SDS011;5819;49.648;8.330;2023-03-14T06:04:52;1.85;;;0.40;;
11524;SDS011;5819;49.648;8.330;2023-03-14T06:07:20;2.97;;;0.88;;
11524;SDS011;5819;49.648;8.330;2023-03-14T06:09:49;4.43;;;1.33;;
11524;SDS011;5819;49.648;8.330;2023-03-14T06:12:19;2.13;;;0.50;;
11524;SDS011;5819;49.648;8.330;2023-03-14T06:14:47;3.05;;;0.70;;
11524;SDS011;5819;49.648;8.330;2023-03-14T06:17:14;4.18;;;0.82;;
11524;SDS011;5819;49.648;8.330;2023-03-14T06:19:51;4.15;;;0.88;;
11524;SDS011;5819;49.648;8.330;2023-03-14T06:22:20;2.67;;;0.60;;
11524;SDS011;5819;49.648;8.330;2023-03-14T06:24:53;4.93;;;1.90;;
11524;SDS011;5819;49.648;8.330;2023-03-14T06:27:22;3.88;;;0.90;;
11524;SDS011;5819;49.648;8.330;2023-03-14T06:29:53;3.90;;;0.60;;
11524;SDS011;5819;49.648;8.330;2023-03-14T06:32:23;2.92;;;0.70;;
11524;SDS011;5819;49.648;8.330;2023-03-14T06:34:55;3.08;;;0.88;;
11524;SDS011;5819;49.648;8.330;2023-03-14T06:37:32;2.20;;;0.65;;
11524;SDS011;5819;49.648;8.330;2023-03-14T06:40:05;4.57;;;1.10;;
11524;SDS011;5819;49.648;8.330;2023-03-14T06:42:55;3.88;;;0.70;;
11524;SDS011;5819;49.648;8.330;2023-03-14T06:45:25;3.10;;;0.80;;
11524;SDS011;5819;49.648;8.330;2023-03-14T06:47:55;5.07;;;0.93;;
11524;SDS011;5819;49.648;8.330;2023-03-14T06:50:30;2.83;;;0.68;;
11524;SDS011;5819;49.648;8.330;2023-03-14T06:52:58;2.80;;;0.63;;
11524;SDS011;5819;49.648;8.330;2023-03-14T06:55:33;4.35;;;0.70;;
11524;SDS011;5819;49.648;8.330;2023-03-14T06:58:01;3.25;;;0.75;;
11524;SDS011;5819;49.648;8.330;2023-03-14T07:00:35;6.00;;;0.75;;
11524;SDS011;5819;49.648;8.330;2023-03-14T07:03:03;1.33;;;0.50;;
11524;SDS011;5819;49.648;8.330;2023-03-14T07:05:37;3.15;;;0.80;;
11524;SDS011;5819;49.648;8.330;2023-03-14T07:08:07;1.75;;;0.63;;
11524;SDS011;5819;49.648;8.330;2023-03-14T07:10:37;3.70;;;0.68;;
11524;SDS011;5819;49.648;8.330;2023-03-14T07:13:07;3.10;;;1.00;;
11524;SDS011;5819;49.648;8.330;2023-03-14T07:15:44;3.20;;;0.70;;
11524;SDS011;5819;49.648;8.330;2023-03-14T07:18:13;3.03;;;0.82;;
11524;SDS011;5819;49.648;8.330;2023-03-14T07:20:41;4.43;;;0.70;;
11524;SDS011;5819;49.648;8.330;2023-03-14T07:23:09;2.90;;;0.70;;
11524;SDS011;5819;49.648;8.330;2023-03-14T07:25:44;2.40;;;0.82;;
11524;SDS011;5819;49.648;8.330;2023-03-14T07:28:13;3.55;;;0.75;;
11524;SDS011;5819;49.648;8.330;2023-03-14T07:30:45;2.25;;;0.70;;
11524;SDS011;5819;49.648;8.330;2023-03-14T07:33:24;2.10;;;0.60;;
11524;SDS011;5819;49.648;8.330;2023-03-14T07:35:58;3.60;;;0.50;;
11524;SDS011;5819;49.648;8.330;2023-03-14T07:38:30;2.17;;;0.85;;
11524;SDS011;5819;49.648;8.330;2023-03-14T07:41:12;1.45;;;0.30;;
11524;SDS011;5819;49.648;8.330;2023-03-14T07:43:48;1.90;;;0.47;;
11524;SDS011;5819;49.648;8.330;2023-03-14T07:46:16;3.50;;;0.60;;
11524;SDS011;5819;49.648;8.330;2023-03-14T07:48:44;2.30;;;0.38;;
11524;SDS011;5819;49.648;8.330;2023-03-14T07:51:12;2.67;;;0.40;;
11524;SDS011;5819;49.648;8.330;2023-03-14T07:53:40;2.00;;;0.40;;
11524;SDS011;5819;49.648;8.330;2023-03-14T07:56:10;3.33;;;0.50;;
11524;SDS011;5819;49.648;8.330;2023-03-14T07:58:40;3.72;;;0.50;;
11524;SDS011;5819;49.648;8.330;2023-03-14T08:01:07;2.22;;;0.45;;
11524;SDS011;5819;49.648;8.330;2023-03-14T08:03:36;3.08;;;0.60;;
11524;SDS011;5819;49.648;8.330;2023-03-14T08:06:04;2.08;;;0.60;;
11524;SDS011;5819;49.648;8.330;2023-03-14T08:08:33;2.10;;;0.40;;
11524;SDS011;5819;49.648;8.330;2023-03-14T08:11:02;2.15;;;0.40;;
11524;SDS011;5819;49.648;8.330;2023-03-14T08:13:33;1.50;;;0.40;;
11524;SDS011;5819;49.648;8.330;2023-03-14T08:16:01;2.60;;;0.80;;
11524;SDS011;5819;49.648;8.330;2023-03-14T08:18:31;2.30;;;0.60;;
11524;SDS011;5819;49.648;8.330;2023-03-14T08:20:59;0.90;;;0.60;;
11524;SDS011;5819;49.648;8.330;2023-03-14T08:23:28;2.65;;;0.43;;
11524;SDS011;5819;49.648;8.330;2023-03-14T08:25:57;1.42;;;0.30;;
11524;SDS011;5819;49.648;8.330;2023-03-14T08:28:25;0.80;;;0.32;;
11524;SDS011;5819;49.648;8.330;2023-03-14T08:30:58;2.83;;;0.40;;
11524;SDS011;5819;49.648;8.330;2023-03-14T08:33:28;1.52;;;0.40;;
11524;SDS011;5819;49.648;8.330;2023-03-14T08:35:58;4.50;;;0.85;;
11524;SDS011;5819;49.648;8.330;2023-03-14T08:38:29;1.10;;;0.40;;
11524;SDS011;5819;49.648;8.330;2023-03-14T08:40:58;1.73;;;0.60;;
11524;SDS011;5819;49.648;8.330;2023-03-14T08:43:28;2.40;;;0.40;;
11524;SDS011;5819;49.648;8.330;2023-03-14T08:45:59;1.15;;;0.68;;
11524;SDS011;5819;49.648;8.330;2023-03-14T08:48:29;2.85;;;0.43;;
11524;SDS011;5819;49.648;8.330;2023-03-14T08:51:03;1.20;;;0.50;;
11524;SDS011;5819;49.648;8.330;2023-03-14T08:53:32;1.95;;;0.30;;
11524;SDS011;5819;49.648;8.330;2023-03-14T08:56:00;1.20;;;0.30;;
11524;SDS011;5819;49.648;8.330;2023-03-14T08:58:30;1.77;;;0.30;;
11524;SDS011;5819;49.648;8.330;2023-03-14T09:00:59;1.38;;;0.30;;
11524;SDS011;5819;49.648;8.330;2023-03-14T09:03:28;1.60;;;0.40;;
11524;SDS011;5819;49.648;8.330;2023-03-14T09:06:00;1.17;;;0.40;;
11524;SDS011;5819;49.648;8.330;2023-03-14T09:08:31;1.13;;;0.30;;
11524;SDS011;5819;49.648;8.330;2023-03-14T09:11:01;2.60;;;0.55;;
11524;SDS011;5819;49.648;8.330;2023-03-14T09:13:31;1.88;;;0.30;;
11524;SDS011;5819;49.648;8.330;2023-03-14T09:16:02;1.77;;;0.60;;
11524;SDS011;5819;49.648;8.330;2023-03-14T09:18:32;1.27;;;0.35;;
11524;SDS011;5819;49.648;8.330;2023-03-14T09:21:01;1.50;;;0.30;;
11524;SDS011;5819;49.648;8.330;2023-03-14T09:23:30;4.53;;;0.50;;
11524;SDS011;5819;49.648;8.330;2023-03-14T09:26:00;0.82;;;0.20;;
11524;SDS011;5819;49.648;8.330;2023-03-14T09:28:28;4.40;;;0.47;;
11524;SDS011;5819;49.648;8.330;2023-03-14T09:30:57;0.70;;;0.28;;
11524;SDS011;5819;49.648;8.330;2023-03-14T09:33:26;1.42;;;0.28;;
11524;SDS011;5819;49.648;8.330;2023-03-14T09:35:57;1.20;;;0.40;;
11524;SDS011;5819;49.648;8.330;2023-03-14T09:38:26;1.52;;;0.20;;
11524;SDS011;5819;49.648;8.330;2023-03-14T09:40:54;1.30;;;0.22;;
11524;SDS011;5819;49.648;8.330;2023-03-14T09:43:25;1.92;;;0.30;;
11524;SDS011;5819;49.648;8.330;2023-03-14T09:45:57;3.63;;;0.40;;
11524;SDS011;5819;49.648;8.330;2023-03-14T09:48:33;1.35;;;0.20;;
11524;SDS011;5819;49.648;8.330;2023-03-14T09:51:05;0.93;;;0.20;;
11524;SDS011;5819;49.648;8.330;2023-03-14T09:53:40;4.05;;;0.30;;
11524;SDS011;5819;49.648;8.330;2023-03-14T09:56:11;0.70;;;0.28;;
11524;SDS011;5819;49.648;8.330;2023-03-14T09:58:42;1.00;;;0.17;;
11524;SDS011;5819;49.648;8.330;2023-03-14T10:01:15;0.60;;;0.22;;
11524;SDS011;5819;49.648;8.330;2023-03-14T10:03:47;1.45;;;0.30;;
11524;SDS011;5819;49.648;8.330;2023-03-14T10:06:16;0.30;;;0.10;;
11524;SDS011;5819;49.648;8.330;2023-03-14T10:08:44;2.75;;;0.20;;
11524;SDS011;5819;49.648;8.330;2023-03-14T10:11:14;0.95;;;0.28;;
11524;SDS011;5819;49.648;8.330;2023-03-14T10:13:52;1.35;;;0.20;;
11524;SDS011;5819;49.648;8.330;2023-03-14T10:16:31;0.75;;;0.32;;
11524;SDS011;5819;49.648;8.330;2023-03-14T10:19:04;0.70;;;0.10;;
11524;SDS011;5819;49.648;8.330;2023-03-14T10:21:39;0.60;;;0.10;;
11524;SDS011;5819;49.648;8.330;2023-03-14T10:24:10;0.70;;;0.22;;
11524;SDS011;5819;49.648;8.330;2023-03-14T10:26:47;0.73;;;0.20;;
11524;SDS011;5819;49.648;8.330;2023-03-14T10:29:16;0.40;;;0.20;;
11524;SDS011;5819;49.648;8.330;2023-03-14T10:31:48;0.45;;;0.20;;
11524;SDS011;5819;49.648;8.330;2023-03-14T10:34:22;0.38;;;0.20;;
11524;SDS011;5819;49.648;8.330;2023-03-14T10:36:52;1.23;;;0.40;;
11524;SDS011;5819;49.648;8.330;2023-03-14T10:39:22;3.00;;;1.30;;
11524;SDS011;5819;49.648;8.330;2023-03-14T10:41:54;0.43;;;0.28;;
11524;SDS011;5819;49.648;8.330;2023-03-14T10:44:31;1.55;;;0.20;;
11524;SDS011;5819;49.648;8.330;2023-03-14T10:47:02;1.92;;;0.30;;
11524;SDS011;5819;49.648;8.330;2023-03-14T10:49:34;0.68;;;0.22;;
11524;SDS011;5819;49.648;8.330;2023-03-14T10:52:12;0.40;;;0.20;;
11524;SDS011;5819;49.648;8.330;2023-03-14T10:54:46;0.40;;;0.20;;
11524;SDS011;5819;49.648;8.330;2023-03-14T10:57:14;0.95;;;0.13;;
11524;SDS011;5819;49.648;8.330;2023-03-14T10:59:42;1.95;;;0.30;;
11524;SDS011;5819;49.648;8.330;2023-03-14T11:02:17;0.90;;;0.20;;
11524;SDS011;5819;49.648;8.330;2023-03-14T11:04:59;1.75;;;0.30;;
11524;SDS011;5819;49.648;8.330;2023-03-14T11:07:39;0.60;;;0.20;;
11524;SDS011;5819;49.648;8.330;2023-03-14T11:10:19;0.32;;;0.20;;
11524;SDS011;5819;49.648;8.330;2023-03-14T11:12:59;1.02;;;0.30;;
11524;SDS011;5819;49.648;8.330;2023-03-14T11:15:36;1.40;;;0.40;;
11524;SDS011;5819;49.648;8.330;2023-03-14T11:18:18;0.88;;;0.30;;
11524;SDS011;5819;49.648;8.330;2023-03-14T11:20:56;0.68;;;0.40;;
11524;SDS011;5819;49.648;8.330;2023-03-14T11:23:31;0.60;;;0.25;;
11524;SDS011;5819;49.648;8.330;2023-03-14T11:26:13;0.47;;;0.30;;
11524;SDS011;5819;49.648;8.330;2023-03-14T11:28:54;0.60;;;0.30;;
11524;SDS011;5819;49.648;8.330;2023-03-14T11:31:26;0.60;;;0.52;;
11524;SDS011;5819;49.648;8.330;2023-03-14T11:33:56;1.05;;;0.55;;
11524;SDS011;5819;49.648;8.330;2023-03-14T11:36:33;3.03;;;0.70;;
11524;SDS011;5819;49.648;8.330;2023-03-14T11:39:07;2.83;;;0.57;;
11524;SDS011;5819;49.648;8.330;2023-03-14T11:41:40;1.48;;;0.43;;
11524;SDS011;5819;49.648;8.330;2023-03-14T11:44:14;1.33;;;0.50;;
11524;SDS011;5819;49.648;8.330;2023-03-14T11:46:47;2.58;;;1.73;;
11524;SDS011;5819;49.648;8.330;2023-03-14T11:49:24;0.47;;;0.28;;
11524;SDS011;5819;49.648;8.330;2023-03-14T11:52:00;0.80;;;0.32;;
11524;SDS011;5819;49.648;8.330;2023-03-14T11:54:34;2.10;;;0.30;;
11524;SDS011;5819;49.648;8.330;2023-03-14T11:57:11;0.82;;;0.30;;
11524;SDS011;5819;49.648;8.330;2023-03-14T11:59:45;0.88;;;0.35;;
11524;SDS011;5819;49.648;8.330;2023-03-14T12:02:20;1.88;;;0.47;;
11524;SDS011;5819;49.648;8.330;2023-03-14T12:08:10;0.20;;;0.00;;
11524;SDS011;5819;49.648;8.330;2023-03-14T12:10:58;0.63;;;0.17;;
11524;SDS011;5819;49.648;8.330;2023-03-14T12:13:32;0.95;;;0.10;;
11524;SDS011;5819;49.648;8.330;2023-03-14T12:16:04;0.57;;;0.15;;
11524;SDS011;5819;49.648;8.330;2023-03-14T12:18:35;0.63;;;0.20;;
11524;SDS011;5819;49.648;8.330;2023-03-14T12:21:09;0.50;;;0.10;;
11524;SDS011;5819;49.648;8.330;2023-03-14T12:23:41;1.23;;;0.20;;
11524;SDS011;5819;49.648;8.330;2023-03-14T12:26:15;0.30;;;0.10;;
11524;SDS011;5819;49.648;8.330;2023-03-14T12:28:48;0.43;;;0.10;;
11524;SDS011;5819;49.648;8.330;2023-03-14T12:31:37;0.30;;;0.13;;
11524;SDS011;5819;49.648;8.330;2023-03-14T12:34:29;0.30;;;0.05;;
11524;SDS011;5819;49.648;8.330;2023-03-14T12:36:59;0.30;;;0.20;;
11524;SDS011;5819;49.648;8.330;2023-03-14T12:39:37;0.40;;;0.20;;
11524;SDS011;5819;49.648;8.330;2023-03-14T12:42:12;0.40;;;0.20;;
11524;SDS011;5819;49.648;8.330;2023-03-14T12:44:44;0.30;;;0.20;;
11524;SDS011;5819;49.648;8.330;2023-03-14T12:50:22;0.40;;;0.20;;
11524;SDS011;5819;49.648;8.330;2023-03-14T12:53:00;0.20;;;0.10;;
11524;SDS011;5819;49.648;8.330;2023-03-14T12:55:51;0.30;;;0.20;;
11524;SDS011;5819;49.648;8.330;2023-03-14T12:58:25;0.30;;;0.20;;
11524;SDS011;5819;49.648;8.330;2023-03-14T13:00:59;0.82;;;0.30;;
11524;SDS011;5819;49.648;8.330;2023-03-14T13:03:36;0.73;;;0.30;;
11524;SDS011;5819;49.648;8.330;2023-03-14T13:06:10;0.68;;;0.30;;
11524;SDS011;5819;49.648;8.330;2023-03-14T13:08:39;1.48;;;0.40;;
11524;SDS011;5819;49.648;8.330;2023-03-14T13:11:10;1.52;;;0.32;;
11524;SDS011;5819;49.648;8.330;2023-03-14T13:13:45;0.95;;;0.40;;
11524;SDS011;5819;49.648;8.330;2023-03-14T13:16:16;0.73;;;0.38;;
11524;SDS011;5819;49.648;8.330;2023-03-14T13:18:47;0.45;;;0.30;;
11524;SDS011;5819;49.648;8.330;2023-03-14T13:21:19;0.40;;;0.30;;
11524;SDS011;5819;49.648;8.330;2023-03-14T13:23:56;0.77;;;0.50;;
11524;SDS011;5819;49.648;8.330;2023-03-14T13:26:32;0.85;;;0.30;;
11524;SDS011;5819;49.648;8.330;2023-03-14T13:29:14;1.30;;;0.63;;
11524;SDS011;5819;49.648;8.330;2023-03-14T13:31:44;2.10;;;0.50;;
11524;SDS011;5819;49.648;8.330;2023-03-14T13:34:13;1.25;;;0.63;;
11524;SDS011;5819;49.648;8.330;2023-03-14T13:36:41;2.45;;;0.60;;
11524;SDS011;5819;49.648;8.330;2023-03-14T13:39:10;1.15;;;0.98;;
11524;SDS011;5819;49.648;8.330;2023-03-14T13:41:42;1.08;;;0.70;;
11524;SDS011;5819;49.648;8.330;2023-03-14T13:44:13;1.35;;;0.68;;
11524;SDS011;5819;49.648;8.330;2023-03-14T13:46:43;1.70;;;0.68;;
11524;SDS011;5819;49.648;8.330;2023-03-14T13:49:16;1.77;;;0.80;;
11524;SDS011;5819;49.648;8.330;2023-03-14T13:51:49;2.78;;;0.77;;
11524;SDS011;5819;49.648;8.330;2023-03-14T13:54:19;1.33;;;0.60;;
11524;SDS011;5819;49.648;8.330;2023-03-14T13:57:00;1.95;;;0.50;;
11524;SDS011;5819;49.648;8.330;2023-03-14T13:59:31;0.45;;;0.40;;
11524;SDS011;5819;49.648;8.330;2023-03-14T14:02:03;1.08;;;0.60;;
11524;SDS011;5819;49.648;8.330;2023-03-14T14:04:44;1.58;;;0.50;;
11524;SDS011;5819;49.648;8.330;2023-03-14T14:07:15;1.67;;;0.52;;
11524;SDS011;5819;49.648;8.330;2023-03-14T14:09:46;1.58;;;0.50;;
11524;SDS011;5819;49.648;8.330;2023-03-14T14:12:18;1.20;;;0.40;;
11524;SDS011;5819;49.648;8.330;2023-03-14T14:14:52;1.30;;;0.60;;
11524;SDS011;5819;49.648;8.330;2023-03-14T14:17:30;1.50;;;0.70;;
11524;SDS011;5819;49.648;8.330;2023-03-14T14:20:01;1.25;;;0.52;;
11524;SDS011;5819;49.648;8.330;2023-03-14T14:22:35;1.73;;;0.73;;
11524;SDS011;5819;49.648;8.330;2023-03-14T14:25:05;1.33;;;0.60;;
11524;SDS011;5819;49.648;8.330;2023-03-14T14:27:46;1.70;;;0.70;;
11524;SDS011;5819;49.648;8.330;2023-03-14T14:30:27;1.88;;;0.52;;
11524;SDS011;5819;49.648;8.330;2023-03-14T14:33:17;1.10;;;0.63;;
11524;SDS011;5819;49.648;8.330;2023-03-14T14:35:50;0.63;;;0.30;;
11524;SDS011;5819;49.648;8.330;2023-03-14T14:38:28;0.90;;;0.50;;
11524;SDS011;5819;49.648;8.330;2023-03-14T14:40:59;1.67;;;0.50;;
11524;SDS011;5819;49.648;8.330;2023-03-14T14:43:36;2.05;;;0.75;;
11524;SDS011;5819;49.648;8.330;2023-03-14T14:46:08;2.50;;;1.70;;
11524;SDS011;5819;49.648;8.330;2023-03-14T14:48:44;2.75;;;0.65;;
11524;SDS011;5819;49.648;8.330;2023-03-14T14:51:22;0.75;;;0.50;;
11524;SDS011;5819;49.648;8.330;2023-03-14T14:54:03;0.88;;;0.45;;
11524;SDS011;5819;49.648;8.330;2023-03-14T14:56:39;0.68;;;0.43;;
11524;SDS011;5819;49.648;8.330;2023-03-14T14:59:18;2.20;;;0.60;;
11524;SDS011;5819;49.648;8.330;2023-03-14T15:01:54;1.65;;;0.30;;
11524;SDS011;5819;49.648;8.330;2023-03-14T15:04:25;1.33;;;0.60;;
11524;SDS011;5819;49.648;8.330;2023-03-14T15:06:54;1.25;;;0.73;;
11524;SDS011;5819;49.648;8.330;2023-03-14T15:09:23;2.03;;;0.40;;
11524;SDS011;5819;49.648;8.330;2023-03-14T15:11:52;5.05;;;0.50;;
11524;SDS011;5819;49.648;8.330;2023-03-14T15:14:22;1.55;;;0.55;;
11524;SDS011;5819;49.648;8.330;2023-03-14T15:16:50;1.67;;;0.50;;
11524;SDS011;5819;49.648;8.330;2023-03-14T15:19:20;0.80;;;0.30;;
11524;SDS011;5819;49.648;8.330;2023-03-14T15:21:51;0.68;;;0.30;;
11524;SDS011;5819;49.648;8.330;2023-03-14T15:24:23;0.80;;;0.50;;
11524;SDS011;5819;49.648;8.330;2023-03-14T15:26:51;1.45;;;0.47;;
11524;SDS011;5819;49.648;8.330;2023-03-14T15:29:21;1.77;;;0.40;;
11524;SDS011;5819;49.648;8.330;2023-03-14T15:31:50;1.48;;;0.30;;
11524;SDS011;5819;49.648;8.330;2023-03-14T15:34:18;1.27;;;0.40;;
11524;SDS011;5819;49.648;8.330;2023-03-14T15:36:46;1.42;;;0.60;;
11524;SDS011;5819;49.648;8.330;2023-03-14T15:39:15;1.35;;;0.50;;
11524;SDS011;5819;49.648;8.330;2023-03-14T15:41:44;1.33;;;0.43;;